Marion, Pennsylvania
Current Conditions -  °F | °C
As of 7:53 AM on Monday 22 Dec 2014 (Local Time) from KHGR Reporting Station
Haze Haze  
Wind Chill: 25°   Ceiling: 4000
Heat Index: 25°   Visibility: 5mi
Dew Point: 21°   Wind: 0mph
Humidity: 85%   Direction: NA
Pressure: 30.28"   Gusts: NA
Location:  39.86°N, 77.69°W
Report Text: KHGR 221253Z 00000KT 5SM BR OVC040 M04/M06 A3028 RMK AO2 SLP271 T10391061
Loading
Personal Weather Stations






























Interactive Weather Map New forecast layout! Learn more

10-Day Weather Forecast

Advertisements
Track Severe Weather on mobile